Time,TemperatureF,DewpointF,PressureIn,WindDirection,WindDirectionDegrees,WindSpeedMPH,WindSpeedGustMPH,Humidity,HourlyPrecipIn,Conditions,Clouds,dailyrainin,SoftwareType,DateUTC
2013-09-20 00:12:00,54.5,54.2,29.91,North,-999,0.0,-999.0,99,-99.99,,,-99.99,Acu-Link.com,2013-09-20 05:12:00,
2013-09-20 00:28:00,54.3,54.0,29.91,North,-999,0.0,-999.0,99,-99.99,,,-99.99,Acu-Link.com,2013-09-20 05:28:00,
2013-09-20 00:44:00,54.0,53.7,29.91,North,-999,0.0,-999.0,99,-99.99,,,-99.99,Acu-Link.com,2013-09-20 05:44:00,
2013-09-20 00:59:00,53.9,53.6,29.91,North,-999,0.0,-999.0,99,-99.99,,,-99.99,Acu-Link.com,2013-09-20 05:59:00,
2013-09-20 01:14:00,53.2,52.9,29.91,North,-999,0.0,-999.0,99,-99.99,,,-99.99,Acu-Link.com,2013-09-20 06:14:00,
2013-09-20 01:30:00,52.6,52.3,29.91,North,-999,0.0,-999.0,99,-99.99,,,-99.99,Acu-Link.com,2013-09-20 06:30:00,
2013-09-20 01:45:00,52.8,52.5,29.91,North,-999,0.0,-999.0,99,-99.99,,,-99.99,Acu-Link.com,2013-09-20 06:45:00,
2013-09-20 02:00:00,52.7,52.4,29.92,North,-999,0.0,-999.0,99,-99.99,,,-99.99,Acu-Link.com,2013-09-20 07:00:00,
2013-09-20 02:15:00,52.3,52.0,29.92,North,-999,0.0,-999.0,99,-99.99,,,-99.99,Acu-Link.com,2013-09-20 07:15:00,
2013-09-20 02:31:00,52.0,51.7,29.92,North,-999,0.0,-999.0,99,-99.99,,,-99.99,Acu-Link.com,2013-09-20 07:31:00,
2013-09-20 02:46:00,51.9,51.6,29.92,North,-999,0.0,-999.0,99,-99.99,,,-99.99,Acu-Link.com,2013-09-20 07:46:00,
2013-09-20 03:01:00,51.3,51.0,29.92,North,-999,0.0,-999.0,99,-99.99,,,-99.99,Acu-Link.com,2013-09-20 08:01:00,
2013-09-20 03:17:00,51.2,50.9,29.92,North,-999,0.0,-999.0,99,-99.99,,,-99.99,Acu-Link.com,2013-09-20 08:17:00,
2013-09-20 03:33:00,51.2,50.9,29.92,North,-999,0.0,-999.0,99,-99.99,,,-99.99,Acu-Link.com,2013-09-20 08:33:00,
2013-09-20 03:48:00,51.2,50.9,29.92,North,-999,0.0,-999.0,99,-99.99,,,-99.99,Acu-Link.com,2013-09-20 08:48:00,
2013-09-20 04:03:00,50.9,50.6,29.92,North,-999,0.0,-999.0,99,-99.99,,,-99.99,Acu-Link.com,2013-09-20 09:03:00,
2013-09-20 04:18:00,50.4,50.1,29.92,North,-999,0.0,-999.0,99,-99.99,,,-99.99,Acu-Link.com,2013-09-20 09:18:00,
2013-09-20 04:33:00,49.7,49.4,29.92,North,-999,0.0,-999.0,99,-99.99,,,-99.99,Acu-Link.com,2013-09-20 09:33:00,
2013-09-20 04:48:00,49.5,49.2,29.92,North,-999,0.0,-999.0,99,-99.99,,,-99.99,Acu-Link.com,2013-09-20 09:48:00,
2013-09-20 05:03:00,48.7,48.4,29.92,North,-999,0.0,-999.0,99,-99.99,,,-99.99,Acu-Link.com,2013-09-20 10:03:00,
2013-09-20 05:19:00,48.3,48.0,29.93,North,-999,0.0,-999.0,99,-99.99,,,-99.99,Acu-Link.com,2013-09-20 10:19:00,
2013-09-20 05:34:00,48.4,48.1,29.93,North,-999,0.0,-999.0,99,-99.99,,,-99.99,Acu-Link.com,2013-09-20 10:34:00,
2013-09-20 05:49:00,48.2,47.9,29.94,North,-999,0.0,-999.0,99,-99.99,,,-99.99,Acu-Link.com,2013-09-20 10:49:00,
2013-09-20 06:04:00,47.8,47.5,29.94,North,-999,0.0,-999.0,99,-99.99,,,-99.99,Acu-Link.com,2013-09-20 11:04:00,
2013-09-20 06:20:00,47.7,47.4,29.94,North,-999,0.0,-999.0,99,-99.99,,,-99.99,Acu-Link.com,2013-09-20 11:20:00,
2013-09-20 06:35:00,47.6,47.3,29.95,North,-999,0.0,-999.0,99,-99.99,,,-99.99,Acu-Link.com,2013-09-20 11:35:00,
2013-09-20 06:50:00,47.2,46.9,29.95,North,-999,0.0,-999.0,99,-99.99,,,-99.99,Acu-Link.com,2013-09-20 11:50:00,
2013-09-20 07:06:00,47.0,46.7,29.95,North,-999,0.0,-999.0,99,-99.99,,,-99.99,Acu-Link.com,2013-09-20 12:06:00,
2013-09-20 07:21:00,46.4,46.1,29.96,North,-999,0.0,-999.0,99,-99.99,,,-99.99,Acu-Link.com,2013-09-20 12:21:00,
2013-09-20 07:36:00,47.0,46.7,29.96,North,-999,0.0,-999.0,99,-99.99,,,-99.99,Acu-Link.com,2013-09-20 12:36:00,
2013-09-20 07:51:00,51.5,51.2,29.96,North,-999,0.0,-999.0,99,-99.99,,,-99.99,Acu-Link.com,2013-09-20 12:51:00,
2013-09-20 08:06:00,56.7,52.9,29.97,North,-999,0.0,-999.0,87,-99.99,,,-99.99,Acu-Link.com,2013-09-20 13:06:00,
2013-09-20 08:22:00,58.3,52.2,29.97,North,-999,4.8,-999.0,80,-99.99,,,-99.99,Acu-Link.com,2013-09-20 13:22:00,
2013-09-20 08:37:00,60.2,53.0,29.97,North,-999,4.8,-999.0,77,-99.99,,,-99.99,Acu-Link.com,2013-09-20 13:37:00,
2013-09-20 09:08:00,62.3,53.5,29.97,North,-999,0.0,-999.0,73,-99.99,,,-99.99,Acu-Link.com,2013-09-20 14:08:00,
2013-09-20 09:23:00,64.5,52.9,29.98,North,-999,11.2,-999.0,66,-99.99,,,-99.99,Acu-Link.com,2013-09-20 14:23:00,
2013-09-20 09:39:00,64.0,52.8,29.98,North,-999,4.8,-999.0,67,-99.99,,,-99.99,Acu-Link.com,2013-09-20 14:39:00,
2013-09-20 09:54:00,64.9,51.1,29.98,North,-999,3.2,-999.0,61,-99.99,,,-99.99,Acu-Link.com,2013-09-20 14:54:00,
2013-09-20 10:09:00,65.8,52.0,29.98,North,-999,6.4,-999.0,61,-99.99,,,-99.99,Acu-Link.com,2013-09-20 15:09:00,
2013-09-20 10:24:00,66.2,52.3,29.98,North,-999,9.6,-999.0,61,-99.99,,,-99.99,Acu-Link.com,2013-09-20 15:24:00,
2013-09-20 10:40:00,66.7,52.8,29.99,North,-999,4.8,-999.0,61,-99.99,,,-99.99,Acu-Link.com,2013-09-20 15:40:00,
2013-09-20 10:55:00,67.4,52.1,29.98,North,-999,0.0,-999.0,58,-99.99,,,-99.99,Acu-Link.com,2013-09-20 15:55:00,
2013-09-20 11:10:00,68.4,53.0,29.97,North,-999,1.6,-999.0,58,-99.99,,,-99.99,Acu-Link.com,2013-09-20 16:10:00,
2013-09-20 11:25:00,67.1,52.3,29.97,North,-999,8.0,-999.0,59,-99.99,,,-99.99,Acu-Link.com,2013-09-20 16:25:00,
2013-09-20 11:41:00,67.6,52.3,29.97,North,-999,8.0,-999.0,58,-99.99,,,-99.99,Acu-Link.com,2013-09-20 16:41:00,
2013-09-20 11:56:00,69.3,54.3,29.96,North,-999,0.0,-999.0,59,-99.99,,,-99.99,Acu-Link.com,2013-09-20 16:56:00,
2013-09-20 12:12:00,68.6,51.3,29.96,North,-999,6.4,-999.0,54,-99.99,,,-99.99,Acu-Link.com,2013-09-20 17:12:00,
2013-09-20 12:27:00,69.1,53.2,29.95,North,-999,6.4,-999.0,57,-99.99,,,-99.99,Acu-Link.com,2013-09-20 17:27:00,
2013-09-20 12:42:00,69.1,52.7,29.95,North,-999,6.4,-999.0,56,-99.99,,,-99.99,Acu-Link.com,2013-09-20 17:42:00,
2013-09-20 12:57:00,70.1,52.2,29.94,North,-999,3.2,-999.0,53,-99.99,,,-99.99,Acu-Link.com,2013-09-20 17:57:00,
2013-09-20 13:12:00,70.7,53.7,29.94,North,-999,1.6,-999.0,55,-99.99,,,-99.99,Acu-Link.com,2013-09-20 18:12:00,
2013-09-20 13:27:00,71.2,51.6,29.94,North,-999,3.2,-999.0,50,-99.99,,,-99.99,Acu-Link.com,2013-09-20 18:27:00,
2013-09-20 13:43:00,72.1,52.4,29.93,North,-999,4.8,-999.0,50,-99.99,,,-99.99,Acu-Link.com,2013-09-20 18:43:00,
2013-09-20 13:58:00,72.6,52.9,29.92,North,-999,0.0,-999.0,50,-99.99,,,-99.99,Acu-Link.com,2013-09-20 18:58:00,
2013-09-20 14:13:00,73.8,51.1,29.91,North,-999,9.6,-999.0,45,-99.99,,,-99.99,Acu-Link.com,2013-09-20 19:13:00,
2013-09-20 14:28:00,73.2,51.2,29.91,North,-999,3.2,-999.0,46,-99.99,,,-99.99,Acu-Link.com,2013-09-20 19:28:00,
2013-09-20 14:44:00,74.0,51.9,29.89,North,-999,4.8,-999.0,46,-99.99,,,-99.99,Acu-Link.com,2013-09-20 19:44:00,
2013-09-20 14:59:00,74.4,51.1,29.90,North,-999,3.2,-999.0,44,-99.99,,,-99.99,Acu-Link.com,2013-09-20 19:59:00,
2013-09-20 15:14:00,74.4,51.1,29.89,North,-999,4.8,-999.0,44,-99.99,,,-99.99,Acu-Link.com,2013-09-20 20:14:00,
2013-09-20 15:29:00,74.8,52.6,29.89,North,-999,0.0,-999.0,46,-99.99,,,-99.99,Acu-Link.com,2013-09-20 20:29:00,
2013-09-20 15:44:00,74.8,52.0,29.89,North,-999,1.6,-999.0,45,-99.99,,,-99.99,Acu-Link.com,2013-09-20 20:44:00,
2013-09-20 16:00:00,73.8,51.7,29.88,North,-999,3.2,-999.0,46,-99.99,,,-99.99,Acu-Link.com,2013-09-20 21:00:00,
2013-09-20 16:15:00,74.8,51.4,29.88,North,-999,3.2,-999.0,44,-99.99,,,-99.99,Acu-Link.com,2013-09-20 21:15:00,
2013-09-20 16:31:00,73.8,49.9,29.87,North,-999,0.0,-999.0,43,-99.99,,,-99.99,Acu-Link.com,2013-09-20 21:31:00,
2013-09-20 16:46:00,73.4,49.5,29.87,North,-999,4.8,-999.0,43,-99.99,,,-99.99,Acu-Link.com,2013-09-20 21:46:00,
2013-09-20 17:01:00,73.6,51.5,29.87,North,-999,0.0,-999.0,46,-99.99,,,-99.99,Acu-Link.com,2013-09-20 22:01:00,
2013-09-20 17:16:00,73.8,48.6,29.87,North,-999,3.2,-999.0,41,-99.99,,,-99.99,Acu-Link.com,2013-09-20 22:16:00,
2013-09-20 17:31:00,71.7,48.6,29.86,North,-999,0.0,-999.0,44,-99.99,,,-99.99,Acu-Link.com,2013-09-20 22:31:00,
2013-09-20 17:47:00,69.7,49.1,29.87,North,-999,3.2,-999.0,48,-99.99,,,-99.99,Acu-Link.com,2013-09-20 22:47:00,
2013-09-20 18:02:00,69.6,49.6,29.86,North,-999,0.0,-999.0,49,-99.99,,,-99.99,Acu-Link.com,2013-09-20 23:02:00,
2013-09-20 18:17:00,69.6,48.5,29.87,North,-999,1.6,-999.0,47,-99.99,,,-99.99,Acu-Link.com,2013-09-20 23:17:00,
2013-09-20 18:33:00,67.6,49.3,29.86,North,-999,0.0,-999.0,52,-99.99,,,-99.99,Acu-Link.com,2013-09-20 23:33:00,
2013-09-20 18:48:00,66.4,49.2,29.87,North,-999,0.0,-999.0,54,-99.99,,,-99.99,Acu-Link.com,2013-09-20 23:48:00,
2013-09-20 19:03:00,64.3,49.7,29.86,North,-999,0.0,-999.0,59,-99.99,,,-99.99,Acu-Link.com,2013-09-21 00:03:00,
2013-09-20 19:18:00,61.4,53.0,29.87,North,-999,0.0,-999.0,74,-99.99,,,-99.99,Acu-Link.com,2013-09-21 00:18:00,
2013-09-20 19:34:00,57.7,50.5,29.87,North,-999,0.0,-999.0,77,-99.99,,,-99.99,Acu-Link.com,2013-09-21 00:34:00,
2013-09-20 19:50:00,55.3,50.9,29.87,North,-999,0.0,-999.0,85,-99.99,,,-99.99,Acu-Link.com,2013-09-21 00:50:00,
2013-09-20 20:05:00,53.8,51.2,29.87,North,-999,0.0,-999.0,91,-99.99,,,-99.99,Acu-Link.com,2013-09-21 01:05:00,
2013-09-20 20:20:00,52.8,51.4,29.88,North,-999,0.0,-999.0,95,-99.99,,,-99.99,Acu-Link.com,2013-09-21 01:20:00,
2013-09-20 20:35:00,52.0,51.2,29.88,North,-999,0.0,-999.0,97,-99.99,,,-99.99,Acu-Link.com,2013-09-21 01:35:00,
2013-09-20 20:50:00,51.4,51.1,29.88,North,-999,0.0,-999.0,99,-99.99,,,-99.99,Acu-Link.com,2013-09-21 01:50:00,
2013-09-20 21:06:00,50.5,50.2,29.89,North,-999,0.0,-999.0,99,-99.99,,,-99.99,Acu-Link.com,2013-09-21 02:06:00,
2013-09-20 21:21:00,49.6,49.3,29.89,North,-999,0.0,-999.0,99,-99.99,,,-99.99,Acu-Link.com,2013-09-21 02:21:00,
2013-09-20 21:36:00,49.1,48.8,29.89,North,-999,0.0,-999.0,99,-99.99,,,-99.99,Acu-Link.com,2013-09-21 02:36:00,
2013-09-20 21:51:00,48.5,48.2,29.89,North,-999,0.0,-999.0,99,-99.99,,,-99.99,Acu-Link.com,2013-09-21 02:51:00,
2013-09-20 22:07:00,48.3,48.0,29.89,North,-999,0.0,-999.0,99,-99.99,,,-99.99,Acu-Link.com,2013-09-21 03:07:00,
2013-09-20 22:22:00,48.2,47.9,29.90,North,-999,0.0,-999.0,99,-99.99,,,-99.99,Acu-Link.com,2013-09-21 03:22:00,
2013-09-20 22:38:00,47.8,47.5,29.90,North,-999,0.0,-999.0,99,-99.99,,,-99.99,Acu-Link.com,2013-09-21 03:38:00,
2013-09-20 22:54:00,47.6,47.3,29.90,North,-999,0.0,-999.0,99,-99.99,,,-99.99,Acu-Link.com,2013-09-21 03:54:00,
2013-09-20 23:09:00,47.3,47.0,29.90,North,-999,0.0,-999.0,99,-99.99,,,-99.99,Acu-Link.com,2013-09-21 04:09:00,
2013-09-20 23:24:00,47.0,46.7,29.90,North,-999,0.0,-999.0,99,-99.99,,,-99.99,Acu-Link.com,2013-09-21 04:24:00,
2013-09-20 23:39:00,46.9,46.6,29.90,North,-999,0.0,-999.0,99,-99.99,,,-99.99,Acu-Link.com,2013-09-21 04:39:00,
2013-09-20 23:54:00,46.7,46.4,29.90,North,-999,0.0,-999.0,99,-99.99,,,-99.99,Acu-Link.com,2013-09-21 04:54:00,